Main page
METAR-TAF:

METAR-TAF

Airports :

Shenandoah Municipal Airport

Shenandoah, Iowa, United States

latitude: 40-45N, longitude: 095-25W, elevation: 971 ft

Current weather observation

The report was made 36 minutes ago, at 12:35 UTC
Wind 8 mph from the South/Southeast
Temperature 75°F
Humidity 89%
Pressure 30.14 in. Hg
Visibility: 10 miles
Few clouds at a height of 10000 ft

METAR: KSDA 211235Z AUTO 16007KT 10SM FEW100 24/22 A3014 RMK AO2

Time: 08:11 (13:11 UTC)


TAF: missing

Weather observations and forecasts of more than 4000 airports (METAR and TAF reports).

The available stations are represented by yellow and red dots on the map.

Hover mouse over dot to see the name of the station.

Then click to see weather observations and forecasts.

To change the map : click on the green buttons with a black cross to zoom in, on the green button with a dash to zoom out, or on the green arrows for adjacent maps.


METAR-TAF: